sensor_id;sensor_type;location;lat;lon;timestamp;pressure;altitude;pressure_sealevel;temperature;humidity
65659;BME280;60181;53.258;6.932;2023-01-31T00:00:00;102214.48;;;14.19;64.02
65659;BME280;60181;53.258;6.932;2023-01-31T00:04:05;102214.53;;;14.18;64.11
65659;BME280;60181;53.258;6.932;2023-01-31T00:08:08;102212.62;;;14.18;64.43
65659;BME280;60181;53.258;6.932;2023-01-31T00:12:12;102210.41;;;14.18;64.32
65659;BME280;60181;53.258;6.932;2023-01-31T00:16:16;102208.34;;;14.18;64.37
65659;BME280;60181;53.258;6.932;2023-01-31T00:20:20;102209.91;;;14.18;64.44
65659;BME280;60181;53.258;6.932;2023-01-31T00:24:24;102210.91;;;14.18;64.54
65659;BME280;60181;53.258;6.932;2023-01-31T00:28:28;102212.05;;;14.18;64.54
65659;BME280;60181;53.258;6.932;2023-01-31T00:32:32;102210.91;;;14.18;64.70
65659;BME280;60181;53.258;6.932;2023-01-31T00:36:36;102209.12;;;14.19;64.62
65659;BME280;60181;53.258;6.932;2023-01-31T00:40:40;102207.56;;;14.19;64.71
65659;BME280;60181;53.258;6.932;2023-01-31T00:44:44;102204.92;;;14.19;64.70
65659;BME280;60181;53.258;6.932;2023-01-31T00:48:48;102203.36;;;14.19;64.74
65659;BME280;60181;53.258;6.932;2023-01-31T00:52:52;102204.10;;;14.19;64.73
65659;BME280;60181;53.258;6.932;2023-01-31T00:56:56;102205.13;;;14.18;64.74
65659;BME280;60181;53.258;6.932;2023-01-31T01:01:10;102207.76;;;14.18;64.62
65659;BME280;60181;53.258;6.932;2023-01-31T01:05:04;102208.31;;;14.17;64.59
65659;BME280;60181;53.258;6.932;2023-01-31T01:09:08;102207.93;;;14.18;64.85
65659;BME280;60181;53.258;6.932;2023-01-31T01:13:12;102207.85;;;14.18;64.70
65659;BME280;60181;53.258;6.932;2023-01-31T01:17:16;102209.42;;;14.16;64.14
65659;BME280;60181;53.258;6.932;2023-01-31T01:21:21;102207.09;;;14.06;64.52
65659;BME280;60181;53.258;6.932;2023-01-31T01:25:24;102205.24;;;13.93;64.35
65659;BME280;60181;53.258;6.932;2023-01-31T01:29:28;102203.55;;;13.81;64.34
65659;BME280;60181;53.258;6.932;2023-01-31T01:33:32;102202.66;;;13.71;64.59
65659;BME280;60181;53.258;6.932;2023-01-31T01:37:36;102201.45;;;13.62;63.77
65659;BME280;60181;53.258;6.932;2023-01-31T01:41:40;102201.65;;;13.55;63.83
65659;BME280;60181;53.258;6.932;2023-01-31T01:45:44;102201.11;;;13.49;63.85
65659;BME280;60181;53.258;6.932;2023-01-31T01:49:56;102199.79;;;13.44;63.61
65659;BME280;60181;53.258;6.932;2023-01-31T01:53:53;102197.77;;;13.41;63.95
65659;BME280;60181;53.258;6.932;2023-01-31T01:57:59;102195.71;;;13.37;63.78
65659;BME280;60181;53.258;6.932;2023-01-31T02:02:00;102193.61;;;13.35;63.65
65659;BME280;60181;53.258;6.932;2023-01-31T02:06:04;102191.14;;;13.32;63.74
65659;BME280;60181;53.258;6.932;2023-01-31T02:10:16;102187.44;;;13.30;63.53
65659;BME280;60181;53.258;6.932;2023-01-31T02:14:12;102184.01;;;13.28;63.51
65659;BME280;60181;53.258;6.932;2023-01-31T02:18:16;102179.81;;;13.26;63.75
65659;BME280;60181;53.258;6.932;2023-01-31T02:22:25;102176.44;;;13.25;63.36
65659;BME280;60181;53.258;6.932;2023-01-31T02:26:33;102173.47;;;13.26;63.46
65659;BME280;60181;53.258;6.932;2023-01-31T02:34:37;102163.98;;;13.49;61.48
65659;BME280;60181;53.258;6.932;2023-01-31T02:38:40;102160.08;;;13.59;61.23
65659;BME280;60181;53.258;6.932;2023-01-31T02:59:05;102143.39;;;13.85;62.35
65659;BME280;60181;53.258;6.932;2023-01-31T03:03:00;102140.75;;;13.86;62.37
65659;BME280;60181;53.258;6.932;2023-01-31T03:07:05;102137.00;;;13.87;62.56
65659;BME280;60181;53.258;6.932;2023-01-31T03:11:08;102135.85;;;13.88;62.20
65659;BME280;60181;53.258;6.932;2023-01-31T03:15:23;102135.19;;;13.88;62.62
65659;BME280;60181;53.258;6.932;2023-01-31T03:19:23;102131.57;;;13.88;62.43
65659;BME280;60181;53.258;6.932;2023-01-31T03:23:20;102129.55;;;13.89;62.33
65659;BME280;60181;53.258;6.932;2023-01-31T03:27:24;102124.90;;;13.88;62.48
65659;BME280;60181;53.258;6.932;2023-01-31T03:31:37;102120.70;;;13.88;62.89
65659;BME280;60181;53.258;6.932;2023-01-31T03:35:32;102115.31;;;13.87;62.67
65659;BME280;60181;53.258;6.932;2023-01-31T03:39:41;102109.78;;;13.86;62.66
65659;BME280;60181;53.258;6.932;2023-01-31T03:43:49;102104.47;;;13.85;62.77
65659;BME280;60181;53.258;6.932;2023-01-31T03:47:44;102098.42;;;13.85;62.87
65659;BME280;60181;53.258;6.932;2023-01-31T03:51:49;102092.46;;;13.83;62.64
65659;BME280;60181;53.258;6.932;2023-01-31T03:55:59;102085.25;;;13.82;62.53
65659;BME280;60181;53.258;6.932;2023-01-31T03:59:56;102080.27;;;13.81;62.65
65659;BME280;60181;53.258;6.932;2023-01-31T04:04:01;102075.37;;;13.80;62.76
65659;BME280;60181;53.258;6.932;2023-01-31T04:08:04;102071.55;;;13.79;62.68
65659;BME280;60181;53.258;6.932;2023-01-31T04:12:08;102067.07;;;13.78;62.77
65659;BME280;60181;53.258;6.932;2023-01-31T04:16:12;102062.16;;;13.77;62.43
65659;BME280;60181;53.258;6.932;2023-01-31T04:20:16;102057.51;;;13.75;62.67
65659;BME280;60181;53.258;6.932;2023-01-31T04:24:20;102054.18;;;13.74;62.71
65659;BME280;60181;53.258;6.932;2023-01-31T04:28:24;102050.36;;;13.73;62.59
65659;BME280;60181;53.258;6.932;2023-01-31T04:32:28;102046.45;;;13.73;62.75
65659;BME280;60181;53.258;6.932;2023-01-31T04:36:32;102043.11;;;13.72;62.63
65659;BME280;60181;53.258;6.932;2023-01-31T04:40:36;102039.08;;;13.71;62.72
65659;BME280;60181;53.258;6.932;2023-01-31T04:44:40;102034.42;;;13.70;62.29
65659;BME280;60181;53.258;6.932;2023-01-31T04:48:44;102031.02;;;13.69;62.65
65659;BME280;60181;53.258;6.932;2023-01-31T04:52:48;102029.41;;;13.68;62.81
65659;BME280;60181;53.258;6.932;2023-01-31T04:56:52;102026.86;;;13.67;62.72
65659;BME280;60181;53.258;6.932;2023-01-31T05:00:56;102025.01;;;13.66;62.81
65659;BME280;60181;53.258;6.932;2023-01-31T05:05:00;102024.06;;;13.66;62.59
65659;BME280;60181;53.258;6.932;2023-01-31T05:09:04;102020.23;;;13.65;62.76
65659;BME280;60181;53.258;6.932;2023-01-31T05:13:08;102014.94;;;13.64;62.78
65659;BME280;60181;53.258;6.932;2023-01-31T05:17:12;102010.37;;;13.63;62.61
65659;BME280;60181;53.258;6.932;2023-01-31T05:21:16;102008.39;;;13.62;62.26
65659;BME280;60181;53.258;6.932;2023-01-31T05:25:20;102007.48;;;13.62;62.88
65659;BME280;60181;53.258;6.932;2023-01-31T05:29:24;102004.89;;;13.61;62.56
65659;BME280;60181;53.258;6.932;2023-01-31T05:33:28;102000.66;;;13.60;62.49
65659;BME280;60181;53.258;6.932;2023-01-31T05:37:32;101995.72;;;13.60;62.61
65659;BME280;60181;53.258;6.932;2023-01-31T05:41:36;101990.82;;;13.59;62.98
65659;BME280;60181;53.258;6.932;2023-01-31T05:45:40;101984.48;;;13.58;62.85
65659;BME280;60181;53.258;6.932;2023-01-31T05:49:44;101978.10;;;13.58;62.48
65659;BME280;60181;53.258;6.932;2023-01-31T05:53:47;101971.73;;;13.57;62.75
65659;BME280;60181;53.258;6.932;2023-01-31T05:57:52;101965.47;;;13.56;62.88
65659;BME280;60181;53.258;6.932;2023-01-31T06:01:55;101957.70;;;13.56;62.78
65659;BME280;60181;53.258;6.932;2023-01-31T06:05:59;101952.26;;;13.55;62.36
65659;BME280;60181;53.258;6.932;2023-01-31T06:10:04;101945.81;;;13.55;63.16
65659;BME280;60181;53.258;6.932;2023-01-31T06:14:08;101940.33;;;13.55;63.06
65659;BME280;60181;53.258;6.932;2023-01-31T06:18:11;101935.80;;;13.55;63.38
65659;BME280;60181;53.258;6.932;2023-01-31T06:22:16;101929.71;;;13.55;63.23
65659;BME280;60181;53.258;6.932;2023-01-31T06:26:19;101925.17;;;13.55;63.12
65659;BME280;60181;53.258;6.932;2023-01-31T06:30:23;101918.89;;;13.55;63.36
65659;BME280;60181;53.258;6.932;2023-01-31T06:34:27;101912.80;;;13.54;63.25
65659;BME280;60181;53.258;6.932;2023-01-31T06:38:31;101906.17;;;13.54;63.45
65659;BME280;60181;53.258;6.932;2023-01-31T06:42:36;101899.97;;;13.53;63.38
65659;BME280;60181;53.258;6.932;2023-01-31T06:46:39;101895.11;;;13.52;63.64
65659;BME280;60181;53.258;6.932;2023-01-31T06:50:43;101889.09;;;13.52;63.56
65659;BME280;60181;53.258;6.932;2023-01-31T06:54:47;101883.45;;;13.51;63.49
65659;BME280;60181;53.258;6.932;2023-01-31T06:58:51;101879.30;;;13.50;63.49
65659;BME280;60181;53.258;6.932;2023-01-31T07:02:55;101873.67;;;13.49;63.72
65659;BME280;60181;53.258;6.932;2023-01-31T07:06:59;101866.52;;;13.49;63.45
65659;BME280;60181;53.258;6.932;2023-01-31T07:11:04;101857.62;;;13.49;63.76
65659;BME280;60181;53.258;6.932;2023-01-31T07:15:08;101849.19;;;13.50;63.89
65659;BME280;60181;53.258;6.932;2023-01-31T07:19:11;101841.83;;;13.49;63.68
65659;BME280;60181;53.258;6.932;2023-01-31T07:23:15;101837.32;;;13.52;62.94
65659;BME280;60181;53.258;6.932;2023-01-31T07:27:20;101835.06;;;13.51;63.88
65659;BME280;60181;53.258;6.932;2023-01-31T07:31:23;101832.20;;;13.46;63.96
65659;BME280;60181;53.258;6.932;2023-01-31T07:35:27;101830.95;;;13.41;64.18
65659;BME280;60181;53.258;6.932;2023-01-31T07:39:31;101828.55;;;13.37;64.22
65659;BME280;60181;53.258;6.932;2023-01-31T07:43:35;101826.47;;;13.33;63.99
65659;BME280;60181;53.258;6.932;2023-01-31T07:47:39;101826.68;;;13.30;63.98
65659;BME280;60181;53.258;6.932;2023-01-31T07:51:43;101821.59;;;13.27;64.00
65659;BME280;60181;53.258;6.932;2023-01-31T07:55:47;101817.32;;;13.25;64.00
65659;BME280;60181;53.258;6.932;2023-01-31T07:59:51;101812.81;;;13.23;63.86
65659;BME280;60181;53.258;6.932;2023-01-31T08:03:55;101808.21;;;13.21;63.83
65659;BME280;60181;53.258;6.932;2023-01-31T08:07:59;101803.56;;;13.20;63.79
65659;BME280;60181;53.258;6.932;2023-01-31T08:12:04;101799.67;;;13.27;62.52
65659;BME280;60181;53.258;6.932;2023-01-31T08:16:08;101795.36;;;13.36;63.06
65659;BME280;60181;53.258;6.932;2023-01-31T08:20:12;101791.25;;;13.40;63.55
65659;BME280;60181;53.258;6.932;2023-01-31T08:24:15;101788.98;;;13.41;63.72
65659;BME280;60181;53.258;6.932;2023-01-31T08:28:19;101785.80;;;13.42;63.77
65659;BME280;60181;53.258;6.932;2023-01-31T08:32:23;101783.59;;;13.42;63.80
65659;BME280;60181;53.258;6.932;2023-01-31T08:36:28;101780.82;;;13.43;63.79
65659;BME280;60181;53.258;6.932;2023-01-31T08:40:31;101776.21;;;13.43;63.83
65659;BME280;60181;53.258;6.932;2023-01-31T08:44:35;101772.67;;;13.43;63.85
65659;BME280;60181;53.258;6.932;2023-01-31T08:48:39;101769.87;;;13.43;63.88
65659;BME280;60181;53.258;6.932;2023-01-31T08:52:43;101765.43;;;13.43;63.87
65659;BME280;60181;53.258;6.932;2023-01-31T08:56:47;101760.41;;;13.43;63.91
65659;BME280;60181;53.258;6.932;2023-01-31T09:00:51;101753.75;;;13.44;63.91
65659;BME280;60181;53.258;6.932;2023-01-31T09:04:55;101748.75;;;13.44;63.89
65659;BME280;60181;53.258;6.932;2023-01-31T09:08:59;101744.23;;;13.45;63.92
65659;BME280;60181;53.258;6.932;2023-01-31T09:13:03;101738.75;;;13.46;63.93
65659;BME280;60181;53.258;6.932;2023-01-31T09:17:07;101731.52;;;13.46;63.89
65659;BME280;60181;53.258;6.932;2023-01-31T09:21:12;101728.04;;;13.47;63.85
65659;BME280;60181;53.258;6.932;2023-01-31T09:25:15;101724.04;;;13.49;63.81
65659;BME280;60181;53.258;6.932;2023-01-31T09:29:19;101720.50;;;13.49;63.84
65659;BME280;60181;53.258;6.932;2023-01-31T09:33:23;101714.77;;;13.50;63.88
65659;BME280;60181;53.258;6.932;2023-01-31T09:37:28;101708.51;;;13.50;63.90
65659;BME280;60181;53.258;6.932;2023-01-31T09:41:37;101702.62;;;13.51;63.90
65659;BME280;60181;53.258;6.932;2023-01-31T09:45:35;101695.87;;;13.51;63.88
65659;BME280;60181;53.258;6.932;2023-01-31T09:49:50;101693.36;;;13.52;63.92
65659;BME280;60181;53.258;6.932;2023-01-31T09:53:43;101689.49;;;13.52;63.96
65659;BME280;60181;53.258;6.932;2023-01-31T09:57:53;101687.27;;;13.52;64.05
65659;BME280;60181;53.258;6.932;2023-01-31T10:01:55;101688.17;;;13.52;64.06
65659;BME280;60181;53.258;6.932;2023-01-31T10:06:02;101685.88;;;13.52;64.07
65659;BME280;60181;53.258;6.932;2023-01-31T10:10:07;101684.55;;;13.52;64.05
65659;BME280;60181;53.258;6.932;2023-01-31T10:18:09;101683.56;;;13.52;64.08
65659;BME280;60181;53.258;6.932;2023-01-31T10:22:14;101685.54;;;13.52;64.09
65659;BME280;60181;53.258;6.932;2023-01-31T10:26:17;101687.35;;;13.52;64.10
65659;BME280;60181;53.258;6.932;2023-01-31T10:30:20;101688.17;;;13.52;64.10
65659;BME280;60181;53.258;6.932;2023-01-31T10:34:31;101690.81;;;13.52;64.13
65659;BME280;60181;53.258;6.932;2023-01-31T10:38:31;101692.78;;;13.52;64.12
65659;BME280;60181;53.258;6.932;2023-01-31T10:42:32;101694.84;;;13.53;64.10
65659;BME280;60181;53.258;6.932;2023-01-31T10:46:35;101692.99;;;13.53;64.10
65659;BME280;60181;53.258;6.932;2023-01-31T10:50:42;101692.08;;;13.59;63.95
65659;BME280;60181;53.258;6.932;2023-01-31T10:54:47;101692.66;;;13.71;63.58
65659;BME280;60181;53.258;6.932;2023-01-31T10:58:47;101691.43;;;13.74;63.92
65659;BME280;60181;53.258;6.932;2023-01-31T11:02:51;101687.56;;;13.73;64.35
65659;BME280;60181;53.258;6.932;2023-01-31T11:06:56;101681.41;;;13.71;64.49
65659;BME280;60181;53.258;6.932;2023-01-31T11:11:07;101674.10;;;13.69;64.49
65659;BME280;60181;53.258;6.932;2023-01-31T11:15:10;101667.03;;;13.67;64.52
65659;BME280;60181;53.258;6.932;2023-01-31T11:19:28;101661.08;;;13.65;64.56
65659;BME280;60181;53.258;6.932;2023-01-31T11:23:12;101656.84;;;13.65;64.56
65659;BME280;60181;53.258;6.932;2023-01-31T11:27:32;101653.77;;;13.64;64.55
65659;BME280;60181;53.258;6.932;2023-01-31T11:31:21;101650.39;;;13.63;64.50
65659;BME280;60181;53.258;6.932;2023-01-31T11:35:30;101648.74;;;13.63;64.47
65659;BME280;60181;53.258;6.932;2023-01-31T11:39:31;101647.27;;;13.63;64.49
65659;BME280;60181;53.258;6.932;2023-01-31T11:43:31;101645.45;;;13.63;64.46
65659;BME280;60181;53.258;6.932;2023-01-31T11:47:40;101643.80;;;13.63;64.47
65659;BME280;60181;53.258;6.932;2023-01-31T11:51:40;101641.83;;;13.64;64.47
65659;BME280;60181;53.258;6.932;2023-01-31T11:55:43;101639.88;;;13.64;64.36
65659;BME280;60181;53.258;6.932;2023-01-31T11:59:51;101636.13;;;13.65;64.36
65659;BME280;60181;53.258;6.932;2023-01-31T12:03:55;101632.86;;;13.67;64.32
65659;BME280;60181;53.258;6.932;2023-01-31T12:07:55;101625.76;;;13.69;64.22
65659;BME280;60181;53.258;6.932;2023-01-31T12:12:00;101619.73;;;13.72;64.32
65659;BME280;60181;53.258;6.932;2023-01-31T12:16:03;101614.43;;;13.79;63.76
65659;BME280;60181;53.258;6.932;2023-01-31T12:20:16;101606.70;;;13.82;63.89
65659;BME280;60181;53.258;6.932;2023-01-31T12:40:42;101590.01;;;13.80;64.57
65659;BME280;60181;53.258;6.932;2023-01-31T12:44:40;101585.46;;;13.79;64.51
65659;BME280;60181;53.258;6.932;2023-01-31T12:52:43;101575.30;;;13.78;64.52
65659;BME280;60181;53.258;6.932;2023-01-31T12:56:54;101567.97;;;13.78;64.57
65659;BME280;60181;53.258;6.932;2023-01-31T13:00:54;101559.65;;;13.78;64.45
65659;BME280;60181;53.258;6.932;2023-01-31T13:04:51;101556.14;;;13.79;64.38
65659;BME280;60181;53.258;6.932;2023-01-31T13:08:56;101552.95;;;13.80;64.38
65659;BME280;60181;53.258;6.932;2023-01-31T13:12:59;101550.90;;;13.80;64.42
65659;BME280;60181;53.258;6.932;2023-01-31T13:17:03;101547.94;;;13.81;64.40
65659;BME280;60181;53.258;6.932;2023-01-31T13:21:07;101546.23;;;13.81;64.41
65659;BME280;60181;53.258;6.932;2023-01-31T13:29:22;101548.08;;;13.82;64.50
65659;BME280;60181;53.258;6.932;2023-01-31T13:33:28;101550.59;;;13.82;64.51
65659;BME280;60181;53.258;6.932;2023-01-31T13:37:23;101555.29;;;13.81;64.58
65659;BME280;60181;53.258;6.932;2023-01-31T13:41:28;101562.62;;;13.81;64.62
65659;BME280;60181;53.258;6.932;2023-01-31T13:45:32;101566.88;;;13.81;64.61
65659;BME280;60181;53.258;6.932;2023-01-31T13:49:53;101569.92;;;13.80;64.61
65659;BME280;60181;53.258;6.932;2023-01-31T13:53:42;101574.53;;;13.80;64.57
65659;BME280;60181;53.258;6.932;2023-01-31T13:57:45;101577.40;;;13.80;64.53
65659;BME280;60181;53.258;6.932;2023-01-31T14:01:47;101580.79;;;13.80;64.56
65659;BME280;60181;53.258;6.932;2023-01-31T14:05:58;101583.12;;;13.81;64.42
65659;BME280;60181;53.258;6.932;2023-01-31T14:14:17;101586.16;;;13.83;64.40
65659;BME280;60181;53.258;6.932;2023-01-31T14:18:03;101585.74;;;13.84;64.40
65659;BME280;60181;53.258;6.932;2023-01-31T14:22:16;101587.74;;;13.85;64.37
65659;BME280;60181;53.258;6.932;2023-01-31T14:34:28;101591.38;;;13.88;64.33
65659;BME280;60181;53.258;6.932;2023-01-31T14:38:28;101593.52;;;13.88;64.38
65659;BME280;60181;53.258;6.932;2023-01-31T14:58:43;101606.72;;;13.85;64.57
65659;BME280;60181;53.258;6.932;2023-01-31T15:02:51;101608.17;;;13.85;64.55
65659;BME280;60181;53.258;6.932;2023-01-31T15:06:51;101611.63;;;13.85;64.57
65659;BME280;60181;53.258;6.932;2023-01-31T15:14:59;101614.14;;;13.83;64.69
65659;BME280;60181;53.258;6.932;2023-01-31T15:19:13;101619.17;;;13.83;64.70
65659;BME280;60181;53.258;6.932;2023-01-31T15:23:10;101622.38;;;13.83;64.66
65659;BME280;60181;53.258;6.932;2023-01-31T15:27:23;101626.42;;;13.83;64.67
65659;BME280;60181;53.258;6.932;2023-01-31T15:31:16;101629.63;;;13.83;64.69
65659;BME280;60181;53.258;6.932;2023-01-31T15:39:27;101628.90;;;13.87;64.35
65659;BME280;60181;53.258;6.932;2023-01-31T15:43:27;101629.61;;;13.89;64.45
65659;BME280;60181;53.258;6.932;2023-01-31T15:47:31;101630.00;;;13.88;64.66
65659;BME280;60181;53.258;6.932;2023-01-31T15:51:35;101632.79;;;13.87;64.80
65659;BME280;60181;53.258;6.932;2023-01-31T15:55:39;101638.09;;;13.86;64.87
65659;BME280;60181;53.258;6.932;2023-01-31T15:59:43;101641.52;;;13.85;64.91
65659;BME280;60181;53.258;6.932;2023-01-31T16:03:53;101645.47;;;13.84;64.89
65659;BME280;60181;53.258;6.932;2023-01-31T16:07:51;101648.41;;;13.83;64.94
65659;BME280;60181;53.258;6.932;2023-01-31T16:11:57;101650.44;;;13.82;64.97
65659;BME280;60181;53.258;6.932;2023-01-31T16:15:59;101652.45;;;13.81;64.95
65659;BME280;60181;53.258;6.932;2023-01-31T16:20:03;101655.47;;;13.81;64.98
65659;BME280;60181;53.258;6.932;2023-01-31T16:24:08;101660.58;;;13.80;64.98
65659;BME280;60181;53.258;6.932;2023-01-31T16:28:11;101662.94;;;13.79;65.04
65659;BME280;60181;53.258;6.932;2023-01-31T16:32:21;101665.91;;;13.79;65.04
65659;BME280;60181;53.258;6.932;2023-01-31T16:36:21;101668.26;;;13.78;65.04
65659;BME280;60181;53.258;6.932;2023-01-31T16:40:26;101671.39;;;13.78;65.07
65659;BME280;60181;53.258;6.932;2023-01-31T16:44:28;101674.24;;;13.77;65.13
65659;BME280;60181;53.258;6.932;2023-01-31T16:52:35;101681.20;;;13.76;65.14
65659;BME280;60181;53.258;6.932;2023-01-31T16:56:39;101686.05;;;13.78;64.79
65659;BME280;60181;53.258;6.932;2023-01-31T17:00:43;101691.56;;;13.78;64.93
65659;BME280;60181;53.258;6.932;2023-01-31T17:04:47;101695.51;;;13.78;65.05
65659;BME280;60181;53.258;6.932;2023-01-31T17:08:51;101700.83;;;13.77;65.13
65659;BME280;60181;53.258;6.932;2023-01-31T17:13:02;101703.92;;;13.76;65.18
65659;BME280;60181;53.258;6.932;2023-01-31T17:16:58;101706.31;;;13.75;65.18
65659;BME280;60181;53.258;6.932;2023-01-31T17:21:03;101707.51;;;13.74;65.17
65659;BME280;60181;53.258;6.932;2023-01-31T17:25:12;101708.39;;;13.74;65.21
65659;BME280;60181;53.258;6.932;2023-01-31T17:29:10;101710.62;;;13.73;65.17
65659;BME280;60181;53.258;6.932;2023-01-31T17:33:14;101714.15;;;13.73;65.17
65659;BME280;60181;53.258;6.932;2023-01-31T17:37:18;101717.86;;;13.73;65.20
65659;BME280;60181;53.258;6.932;2023-01-31T17:41:22;101719.39;;;13.73;65.20
65659;BME280;60181;53.258;6.932;2023-01-31T17:45:27;101720.22;;;13.73;65.14
65659;BME280;60181;53.258;6.932;2023-01-31T17:49:30;101721.23;;;13.74;65.02
65659;BME280;60181;53.258;6.932;2023-01-31T17:53:35;101721.22;;;13.76;64.73
65659;BME280;60181;53.258;6.932;2023-01-31T17:57:39;101720.19;;;13.77;64.92
65659;BME280;60181;53.258;6.932;2023-01-31T18:01:42;101718.86;;;13.77;65.09
65659;BME280;60181;53.258;6.932;2023-01-31T18:05:47;101717.71;;;13.76;65.12
65659;BME280;60181;53.258;6.932;2023-01-31T18:09:50;101716.36;;;13.76;65.13
65659;BME280;60181;53.258;6.932;2023-01-31T18:13:54;101717.92;;;13.75;65.15
65659;BME280;60181;53.258;6.932;2023-01-31T18:17:58;101720.03;;;13.75;65.15
65659;BME280;60181;53.258;6.932;2023-01-31T18:22:02;101721.59;;;13.75;65.15
65659;BME280;60181;53.258;6.932;2023-01-31T18:26:07;101722.17;;;13.74;65.16
65659;BME280;60181;53.258;6.932;2023-01-31T18:30:11;101723.99;;;13.74;65.16
65659;BME280;60181;53.258;6.932;2023-01-31T18:34:15;101726.37;;;13.74;65.19
65659;BME280;60181;53.258;6.932;2023-01-31T18:38:18;101727.25;;;13.74;65.22
65659;BME280;60181;53.258;6.932;2023-01-31T18:42:22;101726.26;;;13.73;65.21
65659;BME280;60181;53.258;6.932;2023-01-31T18:46:26;101727.25;;;13.73;65.19
65659;BME280;60181;53.258;6.932;2023-01-31T18:50:30;101727.33;;;13.73;65.24
65659;BME280;60181;53.258;6.932;2023-01-31T18:54:34;101727.08;;;13.73;65.24
65659;BME280;60181;53.258;6.932;2023-01-31T18:58:39;101726.31;;;13.73;65.20
65659;BME280;60181;53.258;6.932;2023-01-31T19:02:47;101727.04;;;13.72;65.21
65659;BME280;60181;53.258;6.932;2023-01-31T19:06:46;101727.79;;;13.72;65.21
65659;BME280;60181;53.258;6.932;2023-01-31T19:10:50;101730.42;;;13.72;65.21
65659;BME280;60181;53.258;6.932;2023-01-31T19:14:54;101730.67;;;13.72;65.24
65659;BME280;60181;53.258;6.932;2023-01-31T19:18:58;101730.89;;;13.72;65.26
65659;BME280;60181;53.258;6.932;2023-01-31T19:23:02;101730.89;;;13.72;65.25
65659;BME280;60181;53.258;6.932;2023-01-31T19:27:06;101731.87;;;13.72;65.21
65659;BME280;60181;53.258;6.932;2023-01-31T19:31:11;101732.20;;;13.72;65.22
65659;BME280;60181;53.258;6.932;2023-01-31T19:35:14;101731.00;;;13.72;65.20
65659;BME280;60181;53.258;6.932;2023-01-31T19:39:18;101728.42;;;13.72;65.24
65659;BME280;60181;53.258;6.932;2023-01-31T19:43:22;101727.37;;;13.72;65.25
65659;BME280;60181;53.258;6.932;2023-01-31T19:47:26;101727.13;;;13.72;65.23
65659;BME280;60181;53.258;6.932;2023-01-31T19:51:30;101727.95;;;13.73;65.21
65659;BME280;60181;53.258;6.932;2023-01-31T19:55:34;101728.07;;;13.73;65.25
65659;BME280;60181;53.258;6.932;2023-01-31T19:59:38;101727.91;;;13.73;65.27
65659;BME280;60181;53.258;6.932;2023-01-31T20:03:43;101728.45;;;13.73;65.07
65659;BME280;60181;53.258;6.932;2023-01-31T20:07:46;101727.73;;;13.76;64.71
65659;BME280;60181;53.258;6.932;2023-01-31T20:11:50;101728.20;;;13.78;64.94
65659;BME280;60181;53.258;6.932;2023-01-31T20:15:55;101728.86;;;13.78;65.10
65659;BME280;60181;53.258;6.932;2023-01-31T20:19:58;101729.08;;;13.77;65.14
65659;BME280;60181;53.258;6.932;2023-01-31T20:24:02;101730.97;;;13.77;65.15
65659;BME280;60181;53.258;6.932;2023-01-31T20:28:06;101733.24;;;13.76;65.17
65659;BME280;60181;53.258;6.932;2023-01-31T20:32:10;101734.23;;;13.75;65.20
65659;BME280;60181;53.258;6.932;2023-01-31T20:36:14;101733.04;;;13.75;65.16
65659;BME280;60181;53.258;6.932;2023-01-31T20:40:18;101731.64;;;13.75;65.12
65659;BME280;60181;53.258;6.932;2023-01-31T20:44:22;101732.72;;;13.75;65.14
65659;BME280;60181;53.258;6.932;2023-01-31T20:48:26;101734.20;;;13.75;65.15
65659;BME280;60181;53.258;6.932;2023-01-31T20:52:30;101734.53;;;13.75;65.13
65659;BME280;60181;53.258;6.932;2023-01-31T20:56:34;101734.69;;;13.75;65.13
65659;BME280;60181;53.258;6.932;2023-01-31T21:00:38;101735.35;;;13.75;65.15
65659;BME280;60181;53.258;6.932;2023-01-31T21:04:42;101734.86;;;13.75;65.14
65659;BME280;60181;53.258;6.932;2023-01-31T21:08:46;101733.78;;;13.75;65.15
65659;BME280;60181;53.258;6.932;2023-01-31T21:12:50;101731.98;;;13.80;64.55
65659;BME280;60181;53.258;6.932;2023-01-31T21:16:54;101730.66;;;13.95;63.24
65659;BME280;60181;53.258;6.932;2023-01-31T21:21:01;101728.53;;;14.12;62.49
65659;BME280;60181;53.258;6.932;2023-01-31T21:25:02;101725.14;;;14.27;62.24
65659;BME280;60181;53.258;6.932;2023-01-31T21:29:06;101722.76;;;14.39;62.13
65659;BME280;60181;53.258;6.932;2023-01-31T21:33:10;101721.26;;;14.48;62.21
65659;BME280;60181;53.258;6.932;2023-01-31T21:37:14;101718.78;;;14.54;62.03
65659;BME280;60181;53.258;6.932;2023-01-31T21:41:18;101717.11;;;14.59;61.96
65659;BME280;60181;53.258;6.932;2023-01-31T21:45:22;101715.01;;;14.62;61.92
65659;BME280;60181;53.258;6.932;2023-01-31T21:49:26;101712.36;;;14.64;61.89
65659;BME280;60181;53.258;6.932;2023-01-31T21:53:30;101710.11;;;14.66;61.82
65659;BME280;60181;53.258;6.932;2023-01-31T21:57:34;101707.00;;;14.67;61.82
65659;BME280;60181;53.258;6.932;2023-01-31T22:01:38;101704.32;;;14.68;61.77
65659;BME280;60181;53.258;6.932;2023-01-31T22:05:42;101702.00;;;14.68;61.77
65659;BME280;60181;53.258;6.932;2023-01-31T22:09:46;101699.08;;;14.67;61.77
65659;BME280;60181;53.258;6.932;2023-01-31T22:13:51;101698.02;;;14.67;61.80
65659;BME280;60181;53.258;6.932;2023-01-31T22:17:54;101697.49;;;14.66;61.88
65659;BME280;60181;53.258;6.932;2023-01-31T22:21:58;101697.74;;;14.66;61.90
65659;BME280;60181;53.258;6.932;2023-01-31T22:26:03;101698.61;;;14.65;61.90
65659;BME280;60181;53.258;6.932;2023-01-31T22:30:07;101698.50;;;14.64;61.90
65659;BME280;60181;53.258;6.932;2023-01-31T22:34:12;101697.52;;;14.64;61.98
65659;BME280;60181;53.258;6.932;2023-01-31T22:38:14;101695.59;;;14.63;62.45
65659;BME280;60181;53.258;6.932;2023-01-31T22:42:18;101694.44;;;14.62;62.50